^^

Weather Underground History

Daily Summary for March 18, 2014 Units:  Metric    English   Both
Daily Weekly Monthly Yearly Custom
  High: Low: Average:
Temperature: 10 °C 6 °C 7.8 °C
Dew Point: 8 °C 4 °C 5.8 °C
Humidity: 94% 78% 86%
Wind Speed: 43km/h 6km/h 21.5km/h
Wind Gust: 43km/h - -
Wind- - West
Pressure: 1017.95 hPa 1009.14 hPa -
Precipitation: 6.6 mm    
Historical Graphs
 
 
Tabular Data for March 18, 2014
Time Temperature Dew Point Pressure Wind Wind Speed Wind Gust Humidity Rainfall Rate (Hourly) solar
00:02 7 °C 4 °C 1016.59 hPa WSW 13 km/h 13 km/h 88% 0 mm 0 W/m2
00:07 7 °C 4 °C 1016.59 hPa WSW 7 km/h 7 km/h 88% 0 mm 0 W/m2
00:12 6 °C 4 °C 1016.26 hPa WSW 7 km/h 7 km/h 88% 0 mm 0 W/m2
00:17 6 °C 4 °C 1016.26 hPa WSW 9 km/h 9 km/h 89% 0 mm 0 W/m2
00:22 6 °C 4 °C 1016.26 hPa WSW 9 km/h 9 km/h 89% 0 mm 0 W/m2
00:27 6 °C 4 °C 1016.26 hPa WSW 10 km/h 10 km/h 89% 0 mm 0 W/m2
00:32 6 °C 4 °C 1016.26 hPa WSW 17 km/h 17 km/h 89% 0 mm 0 W/m2
00:37 6 °C 4 °C 1016.26 hPa WSW 13 km/h 13 km/h 89% 0 mm 0 W/m2
00:42 6 °C 4 °C 1016.26 hPa WSW 7 km/h 7 km/h 89% 0 mm 0 W/m2
00:47 6 °C 4 °C 1016.26 hPa WSW 11 km/h 11 km/h 89% 0 mm 0 W/m2
00:52 6 °C 4 °C 1015.92 hPa WSW 7 km/h 7 km/h 89% 0 mm 0 W/m2
00:57 6 °C 4 °C 1015.92 hPa WSW 6 km/h 6 km/h 90% 0 mm 0 W/m2
01:02 6 °C 4 °C 1015.92 hPa SW 13 km/h 13 km/h 90% 0 mm 0 W/m2
01:07 6 °C 4 °C 1015.92 hPa WSW 9 km/h 9 km/h 90% 0 mm 0 W/m2
01:12 6 °C 4 °C 1015.92 hPa WSW 13 km/h 13 km/h 90% 0 mm 0 W/m2
01:17 6 °C 4 °C 1015.92 hPa WSW 9 km/h 9 km/h 90% 0 mm 0 W/m2
01:22 6 °C 4 °C 1015.58 hPa WSW 9 km/h 9 km/h 90% 0 mm 0 W/m2
01:27 6 °C 4 °C 1015.92 hPa WSW 6 km/h 6 km/h 90% 0 mm 0 W/m2
01:32 6 °C 4 °C 1015.58 hPa WSW 6 km/h 6 km/h 90% 0 mm 0 W/m2
01:37 6 °C 4 °C 1015.58 hPa WSW 6 km/h 6 km/h 90% 0 mm 0 W/m2
01:42 6 °C 4 °C 1015.58 hPa WSW 11 km/h 11 km/h 90% 0 mm 0 W/m2
01:47 6 °C 4 °C 1015.58 hPa WSW 11 km/h 11 km/h 90% 0 mm 0 W/m2
01:52 6 °C 4 °C 1015.58 hPa WSW 11 km/h 11 km/h 91% 0 mm 0 W/m2
01:57 6 °C 4 °C 1015.24 hPa W 15 km/h 15 km/h 91% 0 mm 0 W/m2
02:02 6 °C 4 °C 1015.24 hPa WSW 15 km/h 15 km/h 91% 0 mm 0 W/m2
02:07 6 °C 4 °C 1015.24 hPa WSW 13 km/h 13 km/h 91% 0 mm 0 W/m2
02:12 6 °C 4 °C 1015.24 hPa WSW 10 km/h 10 km/h 91% 0 mm 0 W/m2
02:17 6 °C 4 °C 1015.24 hPa SW 16 km/h 16 km/h 90% 0 mm 0 W/m2
02:22 6 °C 4 °C 1014.9 hPa WSW 11 km/h 11 km/h 90% 0 mm 0 W/m2
02:27 6 °C 4 °C 1014.9 hPa W 13 km/h 13 km/h 91% 0 mm 0 W/m2
02:32 6 °C 4 °C 1014.9 hPa WSW 13 km/h 13 km/h 90% 0 mm 0 W/m2
02:37 6 °C 4 °C 1014.9 hPa WSW 15 km/h 15 km/h 90% 0 mm 0 W/m2
02:42 6 °C 4 °C 1014.56 hPa SW 13 km/h 13 km/h 90% 0 mm 0 W/m2
02:47 6 °C 4 °C 1014.56 hPa WSW 11 km/h 11 km/h 91% 0 mm 0 W/m2
02:52 6 °C 4 °C 1014.56 hPa WSW 11 km/h 11 km/h 90% 0 mm 0 W/m2
02:57 6 °C 4 °C 1014.56 hPa WSW 11 km/h 11 km/h 90% 0 mm 0 W/m2
03:02 6 °C 4 °C 1014.56 hPa WSW 13 km/h 13 km/h 91% 0 mm 0 W/m2
03:08 6 °C 4 °C 1014.22 hPa SW 13 km/h 13 km/h 91% 0 mm 0 W/m2
03:13 6 °C 4 °C 1014.22 hPa WSW 11 km/h 11 km/h 91% 0 mm 0 W/m2
03:18 6 °C 4 °C 1014.22 hPa WSW 19 km/h 19 km/h 91% 0 mm 0 W/m2
03:23 6 °C 4 °C 1014.22 hPa W 13 km/h 13 km/h 91% 0 mm 0 W/m2
03:28 6 °C 4 °C 1014.22 hPa WSW 17 km/h 17 km/h 91% 0 mm 0 W/m2
03:33 6 °C 4 °C 1014.22 hPa W 13 km/h 13 km/h 91% 0 mm 0 W/m2
03:38 6 °C 4 °C 1013.88 hPa WSW 13 km/h 13 km/h 91% 0 mm 0 W/m2
03:43 6 °C 4 °C 1013.88 hPa SW 13 km/h 13 km/h 91% 0 mm 0 W/m2
03:48 6 °C 4 °C 1013.88 hPa WSW 7 km/h 7 km/h 91% 0 mm 0 W/m2
03:53 6 °C 4 °C 1013.88 hPa W 15 km/h 15 km/h 91% 0 mm 0 W/m2
03:58 6 °C 4 °C 1013.55 hPa WSW 15 km/h 15 km/h 91% 0 mm 0 W/m2
04:02 6 °C 4 °C 1013.55 hPa WSW 10 km/h 11 km/h 91% 0 mm 0 W/m2
04:07 6 °C 4 °C 1013.55 hPa SW 15 km/h 15 km/h 91% 0 mm 0 W/m2
04:12 6 °C 5 °C 1013.55 hPa WSW 15 km/h 15 km/h 91% 0 mm 0 W/m2
04:17 6 °C 5 °C 1013.21 hPa W 13 km/h 13 km/h 91% 0 mm 0 W/m2
04:22 6 °C 5 °C 1013.21 hPa WSW 15 km/h 15 km/h 91% 0 mm 0 W/m2
04:27 6 °C 5 °C 1013.21 hPa WSW 15 km/h 15 km/h 90% 0 mm 0 W/m2
04:32 6 °C 5 °C 1013.21 hPa WSW 13 km/h 13 km/h 91% 0 mm 0 W/m2
04:37 6 °C 5 °C 1013.21 hPa W 17 km/h 17 km/h 90% 0 mm 0 W/m2
04:42 6 °C 5 °C 1013.21 hPa WSW 17 km/h 17 km/h 90% 0 mm 0 W/m2
04:47 6 °C 5 °C 1013.21 hPa SW 20 km/h 20 km/h 90% 0 mm 0 W/m2
04:52 6 °C 5 °C 1013.21 hPa W 15 km/h 15 km/h 90% 0 mm 0 W/m2
04:57 6 °C 5 °C 1013.21 hPa WSW 13 km/h 13 km/h 90% 0 mm 0 W/m2
05:02 6 °C 5 °C 1013.21 hPa SW 13 km/h 13 km/h 90% 0 mm 0 W/m2
05:07 7 °C 5 °C 1013.21 hPa WSW 11 km/h 11 km/h 90% 0 mm 0 W/m2
05:12 7 °C 5 °C 1013.21 hPa WSW 17 km/h 17 km/h 90% 0 mm 0 W/m2
05:17 6 °C 5 °C 1013.21 hPa W 13 km/h 13 km/h 91% 0 mm 0 W/m2
05:22 6 °C 5 °C 1013.21 hPa WSW 19 km/h 19 km/h 91% 0 mm 0 W/m2
05:27 6 °C 5 °C 1013.21 hPa WSW 13 km/h 13 km/h 91% 0.25 mm 0 W/m2
05:32 6 °C 5 °C 1013.21 hPa SW 15 km/h 15 km/h 91% 0.25 mm 0 W/m2
05:37 6 °C 5 °C 1013.21 hPa W 11 km/h 11 km/h 92% 0.25 mm 0 W/m2
05:42 6 °C 5 °C 1012.87 hPa WSW 10 km/h 10 km/h 92% 0.25 mm 0 W/m2
05:47 6 °C 5 °C 1012.87 hPa WSW 13 km/h 13 km/h 93% 0.51 mm 0 W/m2
05:52 6 °C 5 °C 1012.87 hPa W 13 km/h 13 km/h 93% 0.51 mm 0 W/m2
05:57 6 °C 5 °C 1012.53 hPa SW 15 km/h 15 km/h 93% 0.51 mm 0 W/m2
06:02 6 °C 5 °C 1012.53 hPa WSW 13 km/h 13 km/h 93% 0.51 mm 0 W/m2
06:07 6 °C 5 °C 1012.53 hPa W 9 km/h 9 km/h 93% 0.51 mm 0 W/m2
06:12 6 °C 5 °C 1012.53 hPa WSW 13 km/h 13 km/h 94% 0.51 mm 0 W/m2
06:17 6 °C 5 °C 1012.53 hPa W 9 km/h 9 km/h 94% 0.51 mm 5 W/m2
06:22 6 °C 5 °C 1012.53 hPa W 10 km/h 10 km/h 94% 0.51 mm 12 W/m2
06:27 6 °C 5 °C 1012.53 hPa WSW 17 km/h 17 km/h 94% 0.51 mm 12 W/m2
06:32 6 °C 5 °C 1012.53 hPa WSW 11 km/h 11 km/h 94% 0.25 mm 25 W/m2
06:37 6 °C 5 °C 1012.53 hPa WSW 11 km/h 11 km/h 94% 0.25 mm 35 W/m2
06:42 6 °C 5 °C 1012.53 hPa WSW 11 km/h 11 km/h 94% 0.25 mm 46 W/m2
06:47 6 °C 5 °C 1012.53 hPa W 13 km/h 13 km/h 94% 0.25 mm 69 W/m2
06:52 6 °C 5 °C 1012.53 hPa WSW 11 km/h 11 km/h 94% 0 mm 76 W/m2
06:57 6 °C 5 °C 1012.19 hPa WSW 9 km/h 9 km/h 94% 0 mm 84 W/m2
07:02 6 °C 5 °C 1012.19 hPa WSW 9 km/h 9 km/h 94% 0 mm 84 W/m2
07:07 6 °C 5 °C 1012.53 hPa WSW 11 km/h 11 km/h 94% 0 mm 123 W/m2
07:12 6 °C 5 °C 1012.19 hPa WSW 13 km/h 13 km/h 94% 0 mm 139 W/m2
07:17 6 °C 6 °C 1012.19 hPa W 11 km/h 11 km/h 94% 0 mm 118 W/m2
07:22 6 °C 6 °C 1012.19 hPa SW 11 km/h 11 km/h 94% 0 mm 111 W/m2
07:27 7 °C 6 °C 1012.19 hPa WSW 11 km/h 11 km/h 94% 0 mm 102 W/m2
07:32 7 °C 6 °C 1012.19 hPa W 17 km/h 17 km/h 93% 0 mm 97 W/m2
07:37 7 °C 6 °C 1012.19 hPa WSW 17 km/h 17 km/h 93% 0 mm 53 W/m2
07:42 7 °C 6 °C 1012.19 hPa WSW 17 km/h 17 km/h 92% 0 mm 67 W/m2
07:47 7 °C 6 °C 1011.85 hPa W 19 km/h 19 km/h 91% 0 mm 63 W/m2
07:52 7 °C 6 °C 1011.85 hPa WSW 15 km/h 15 km/h 91% 0 mm 67 W/m2
07:57 7 °C 5 °C 1011.85 hPa WSW 15 km/h 15 km/h 90% 0 mm 149 W/m2
08:02 7 °C 6 °C 1011.85 hPa WSW 19 km/h 19 km/h 90% 0 mm 295 W/m2
08:07 7 °C 6 °C 1011.85 hPa W 20 km/h 20 km/h 90% 0 mm 204 W/m2
08:12 7 °C 6 °C 1011.85 hPa WSW 19 km/h 19 km/h 89% 0 mm 348 W/m2
08:17 7 °C 6 °C 1011.51 hPa WSW 17 km/h 17 km/h 89% 0 mm 141 W/m2
08:22 7 °C 6 °C 1011.51 hPa W 19 km/h 19 km/h 88% 0 mm 218 W/m2
08:27 8 °C 6 °C 1011.51 hPa WSW 24 km/h 24 km/h 87% 0 mm 158 W/m2
08:32 8 °C 6 °C 1011.51 hPa WSW 28 km/h 28 km/h 87% 0 mm 244 W/m2
08:37 8 °C 6 °C 1011.51 hPa WSW 24 km/h 24 km/h 87% 0 mm 244 W/m2
08:42 8 °C 6 °C 1011.18 hPa SW 19 km/h 19 km/h 85% 0 mm 207 W/m2
08:47 8 °C 6 °C 1011.51 hPa W 20 km/h 20 km/h 84% 0 mm 88 W/m2
08:52 8 °C 6 °C 1011.18 hPa SW 22 km/h 22 km/h 84% 0 mm 81 W/m2
08:57 8 °C 6 °C 1011.18 hPa SW 21 km/h 21 km/h 84% 0 mm 105 W/m2
09:02 8 °C 6 °C 1011.18 hPa WSW 19 km/h 19 km/h 84% 0 mm 146 W/m2
09:07 8 °C 5 °C 1011.18 hPa W 20 km/h 20 km/h 83% 0 mm 192 W/m2
09:12 8 °C 6 °C 1011.18 hPa W 32 km/h 32 km/h 83% 0 mm 199 W/m2
09:17 8 °C 5 °C 1010.84 hPa SW 24 km/h 24 km/h 82% 0 mm 192 W/m2
09:22 8 °C 5 °C 1010.84 hPa WSW 26 km/h 26 km/h 82% 0 mm 102 W/m2
09:27 8 °C 5 °C 1010.84 hPa WSW 24 km/h 24 km/h 82% 0 mm 127 W/m2
09:32 8 °C 5 °C 1010.84 hPa WSW 20 km/h 20 km/h 82% 0 mm 130 W/m2
09:37 8 °C 6 °C 1010.84 hPa WSW 26 km/h 26 km/h 83% 0 mm 162 W/m2
09:42 8 °C 6 °C 1010.84 hPa WSW 28 km/h 28 km/h 82% 0 mm 142 W/m2
09:47 8 °C 6 °C 1010.5 hPa WSW 17 km/h 17 km/h 82% 0 mm 93 W/m2
09:52 8 °C 6 °C 1010.5 hPa SW 23 km/h 23 km/h 82% 0 mm 95 W/m2
09:57 8 °C 6 °C 1010.5 hPa WSW 13 km/h 13 km/h 82% 0 mm 128 W/m2
10:02 8 °C 6 °C 1010.5 hPa SW 20 km/h 20 km/h 83% 0 mm 130 W/m2
10:07 8 °C 6 °C 1010.5 hPa W 28 km/h 28 km/h 83% 0 mm 113 W/m2
10:12 8 °C 6 °C 1010.16 hPa WSW 26 km/h 26 km/h 82% 0 mm 125 W/m2
10:17 8 °C 6 °C 1010.16 hPa WSW 15 km/h 15 km/h 83% 0 mm 141 W/m2
10:22 9 °C 6 °C 1010.16 hPa W 23 km/h 23 km/h 83% 0 mm 137 W/m2
10:27 9 °C 6 °C 1010.16 hPa WSW 19 km/h 19 km/h 83% 0 mm 148 W/m2
10:32 9 °C 6 °C 1009.82 hPa WSW 26 km/h 26 km/h 83% 0 mm 137 W/m2
10:37 9 °C 6 °C 1009.82 hPa WSW 17 km/h 17 km/h 83% 0 mm 146 W/m2
10:42 9 °C 6 °C 1009.82 hPa W 26 km/h 26 km/h 83% 0 mm 51 W/m2
10:47 9 °C 6 °C 1009.82 hPa WSW 19 km/h 19 km/h 83% 0 mm 69 W/m2
10:52 9 °C 6 °C 1009.48 hPa W 28 km/h 28 km/h 83% 0 mm 121 W/m2
10:57 9 °C 6 °C 1009.48 hPa WSW 28 km/h 28 km/h 84% 0 mm 120 W/m2
11:02 9 °C 7 °C 1009.48 hPa WSW 24 km/h 24 km/h 84% 0 mm 265 W/m2
11:07 9 °C 7 °C 1009.48 hPa WSW 28 km/h 28 km/h 83% 0 mm 158 W/m2
11:12 9 °C 7 °C 1009.48 hPa SW 24 km/h 24 km/h 84% 0 mm 279 W/m2
11:17 9 °C 7 °C 1009.48 hPa WSW 33 km/h 33 km/h 83% 0 mm 90 W/m2
11:22 9 °C 7 °C 1009.48 hPa W 26 km/h 26 km/h 83% 0 mm 130 W/m2
11:27 9 °C 7 °C 1009.48 hPa SW 32 km/h 32 km/h 85% 0.25 mm 116 W/m2
11:32 9 °C 7 °C 1009.48 hPa W 20 km/h 20 km/h 87% 0.25 mm 172 W/m2
11:37 9 °C 7 °C 1009.48 hPa WSW 30 km/h 30 km/h 88% 0.25 mm 79 W/m2
11:42 9 °C 7 °C 1009.48 hPa WSW 20 km/h 20 km/h 88% 0.51 mm 72 W/m2
11:47 9 °C 7 °C 1009.48 hPa WSW 24 km/h 24 km/h 89% 0.51 mm 72 W/m2
11:52 8 °C 7 °C 1009.48 hPa W 26 km/h 26 km/h 90% 0.51 mm 135 W/m2
11:57 9 °C 7 °C 1009.48 hPa WSW 30 km/h 30 km/h 91% 0.51 mm 199 W/m2
12:02 9 °C 7 °C 1009.48 hPa WSW 20 km/h 20 km/h 91% 0.51 mm 98 W/m2
12:07 9 °C 8 °C 1009.48 hPa W 24 km/h 24 km/h 91% 0.51 mm 121 W/m2
12:12 9 °C 8 °C 1009.14 hPa WSW 19 km/h 19 km/h 90% 0.51 mm 265 W/m2
12:17 9 °C 8 °C 1009.14 hPa WSW 30 km/h 30 km/h 90% 0.51 mm 469 W/m2
12:22 9 °C 8 °C 1009.14 hPa W 28 km/h 28 km/h 89% 0.51 mm 218 W/m2
12:27 10 °C 8 °C 1009.14 hPa W 32 km/h 32 km/h 88% 0.25 mm 253 W/m2
12:32 10 °C 8 °C 1009.14 hPa W 24 km/h 24 km/h 86% 0.25 mm 69 W/m2
12:37 9 °C 8 °C 1009.14 hPa NW 26 km/h 26 km/h 87% 0.25 mm 56 W/m2
12:42 9 °C 8 °C 1009.14 hPa NW 20 km/h 20 km/h 87% 0 mm 35 W/m2
12:47 9 °C 7 °C 1009.14 hPa NW 13 km/h 13 km/h 86% 0.76 mm 30 W/m2
12:52 8 °C 7 °C 1009.48 hPa NW 19 km/h 19 km/h 88% 2.03 mm 51 W/m2
12:57 8 °C 6 °C 1009.82 hPa WSW 37 km/h 37 km/h 88% 4.32 mm 28 W/m2
13:02 7 °C 6 °C 1009.48 hPa W 32 km/h 32 km/h 88% 5.08 mm 32 W/m2
13:07 7 °C 5 °C 1009.14 hPa W 22 km/h 22 km/h 89% 5.08 mm 53 W/m2
13:12 7 °C 6 °C 1009.14 hPa WNW 30 km/h 30 km/h 90% 5.08 mm 174 W/m2
13:17 7 °C 6 °C 1009.14 hPa W 19 km/h 19 km/h 91% 5.08 mm 135 W/m2
13:22 8 °C 7 °C 1009.14 hPa W 20 km/h 20 km/h 92% 5.08 mm 612 W/m2
13:27 8 °C 7 °C 1009.14 hPa W 28 km/h 28 km/h 90% 5.08 mm 230 W/m2
13:32 8 °C 7 °C 1009.14 hPa WSW 26 km/h 26 km/h 90% 5.08 mm 213 W/m2
13:37 8 °C 7 °C 1009.14 hPa W 26 km/h 26 km/h 90% 5.08 mm 84 W/m2
13:42 8 °C 7 °C 1009.48 hPa W 35 km/h 35 km/h 89% 5.08 mm 63 W/m2
13:47 8 °C 7 °C 1009.48 hPa W 43 km/h 43 km/h 88% 4.32 mm 172 W/m2
13:52 9 °C 7 °C 1009.14 hPa WNW 32 km/h 32 km/h 90% 3.56 mm 538 W/m2
13:57 9 °C 7 °C 1009.14 hPa WNW 32 km/h 32 km/h 88% 1.52 mm 346 W/m2
14:02 9 °C 7 °C 1009.14 hPa W 20 km/h 22 km/h 87% 0.25 mm 223 W/m2
14:07 9 °C 7 °C 1009.14 hPa W 37 km/h 37 km/h 87% 0.25 mm 204 W/m2
14:12 9 °C 7 °C 1009.14 hPa NW 39 km/h 39 km/h 87% 0.25 mm 292 W/m2
14:18 9 °C 7 °C 1009.48 hPa WNW 32 km/h 32 km/h 88% 0.25 mm 197 W/m2
14:23 9 °C 7 °C 1009.48 hPa WNW 35 km/h 35 km/h 88% 0.25 mm 114 W/m2
14:28 9 °C 7 °C 1009.48 hPa WNW 33 km/h 33 km/h 87% 0.25 mm 113 W/m2
14:33 9 °C 7 °C 1009.48 hPa WNW 39 km/h 39 km/h 86% 0.51 mm 100 W/m2
14:38 8 °C 7 °C 1009.82 hPa WNW 32 km/h 32 km/h 89% 0.51 mm 120 W/m2
14:43 8 °C 7 °C 1009.82 hPa WNW 26 km/h 26 km/h 89% 0.51 mm 69 W/m2
14:48 8 °C 7 °C 1009.82 hPa WNW 28 km/h 28 km/h 90% 0.51 mm 81 W/m2
14:53 8 °C 7 °C 1009.82 hPa W 26 km/h 26 km/h 90% 0.51 mm 111 W/m2
14:58 8 °C 7 °C 1009.82 hPa WNW 28 km/h 28 km/h 90% 0.51 mm 125 W/m2
15:02 8 °C 7 °C 1009.82 hPa WNW 33 km/h 33 km/h 91% 0.51 mm 244 W/m2
15:08 9 °C 7 °C 1009.82 hPa WNW 22 km/h 22 km/h 91% 0.51 mm 299 W/m2
15:13 9 °C 8 °C 1009.82 hPa W 30 km/h 30 km/h 91% 0.51 mm 248 W/m2
15:18 9 °C 8 °C 1009.82 hPa WNW 29 km/h 29 km/h 90% 0.51 mm 146 W/m2
15:23 9 °C 8 °C 1009.82 hPa WNW 21 km/h 21 km/h 89% 0.51 mm 104 W/m2
15:28 9 °C 8 °C 1009.82 hPa W 32 km/h 32 km/h 88% 0.51 mm 62 W/m2
15:33 9 °C 7 °C 1009.82 hPa WNW 32 km/h 32 km/h 86% 0.25 mm 53 W/m2
15:38 9 °C 7 °C 1010.16 hPa WNW 19 km/h 19 km/h 86% 0 mm 35 W/m2
15:42 9 °C 7 °C 1010.16 hPa WNW 19 km/h 19 km/h 86% 0 mm 37 W/m2
15:47 9 °C 7 °C 1010.16 hPa NW 29 km/h 29 km/h 86% 0 mm 26 W/m2
15:52 9 °C 7 °C 1010.16 hPa WNW 19 km/h 19 km/h 86% 0 mm 30 W/m2
15:57 9 °C 7 °C 1010.5 hPa WNW 30 km/h 30 km/h 87% 0 mm 37 W/m2
16:02 9 °C 7 °C 1010.5 hPa WNW 28 km/h 28 km/h 85% 0 mm 53 W/m2
16:07 9 °C 7 °C 1010.5 hPa WNW 41 km/h 41 km/h 83% 0 mm 149 W/m2
16:12 10 °C 7 °C 1010.5 hPa WNW 35 km/h 35 km/h 83% 0 mm 329 W/m2
16:18 10 °C 7 °C 1010.84 hPa NW 39 km/h 39 km/h 81% 0 mm 104 W/m2
16:23 10 °C 7 °C 1010.84 hPa W 28 km/h 28 km/h 81% 0 mm 120 W/m2
16:28 10 °C 7 °C 1010.84 hPa NW 35 km/h 35 km/h 81% 0 mm 74 W/m2
16:33 10 °C 7 °C 1011.18 hPa NW 39 km/h 39 km/h 81% 0 mm 54 W/m2
16:38 10 °C 7 °C 1011.18 hPa NW 32 km/h 32 km/h 80% 0 mm 32 W/m2
16:43 10 °C 7 °C 1011.18 hPa WNW 32 km/h 32 km/h 80% 0 mm 32 W/m2
16:48 10 °C 7 °C 1011.18 hPa WNW 43 km/h 43 km/h 80% 0 mm 25 W/m2
16:53 10 °C 7 °C 1011.51 hPa WNW 30 km/h 30 km/h 81% 0 mm 12 W/m2
16:58 10 °C 7 °C 1011.85 hPa WNW 32 km/h 32 km/h 82% 0 mm 11 W/m2
17:03 9 °C 7 °C 1011.85 hPa WNW 30 km/h 30 km/h 83% 0 mm 19 W/m2
17:08 9 °C 7 °C 1011.85 hPa NW 32 km/h 32 km/h 83% 0 mm 16 W/m2
17:13 9 °C 7 °C 1012.19 hPa WNW 32 km/h 32 km/h 82% 0 mm 25 W/m2
17:18 9 °C 7 °C 1012.19 hPa WNW 26 km/h 26 km/h 81% 0 mm 25 W/m2
17:23 10 °C 7 °C 1012.53 hPa WNW 39 km/h 39 km/h 81% 0.25 mm 37 W/m2
17:25 10 °C 7 °C 1012.53 hPa WNW 26 km/h 26 km/h 81% 0.25 mm 30 W/m2
17:30 9 °C 7 °C 1012.53 hPa W 32 km/h 32 km/h 81% 0.25 mm 19 W/m2
17:35 9 °C 7 °C 1012.53 hPa W 26 km/h 26 km/h 81% 0.25 mm 9 W/m2
17:40 9 °C 7 °C 1012.53 hPa WNW 27 km/h 27 km/h 81% 0.25 mm 5 W/m2
17:45 9 °C 7 °C 1012.87 hPa W 30 km/h 30 km/h 81% 0.25 mm 5 W/m2
17:50 9 °C 7 °C 1012.87 hPa WNW 32 km/h 32 km/h 80% 0.25 mm 5 W/m2
17:55 9 °C 7 °C 1012.87 hPa WNW 32 km/h 32 km/h 80% 0.25 mm 0 W/m2
18:00 10 °C 6 °C 1012.87 hPa W 35 km/h 35 km/h 79% 0.25 mm 0 W/m2
18:05 10 °C 6 °C 1013.21 hPa W 43 km/h 43 km/h 78% 0.25 mm 0 W/m2
18:10 10 °C 6 °C 1013.21 hPa WNW 35 km/h 35 km/h 78% 0.25 mm 0 W/m2
18:15 10 °C 6 °C 1013.21 hPa WNW 28 km/h 28 km/h 78% 0.25 mm 0 W/m2
18:20 10 °C 6 °C 1013.55 hPa WNW 30 km/h 30 km/h 79% 0.25 mm 0 W/m2
18:25 10 °C 6 °C 1013.55 hPa WNW 33 km/h 33 km/h 78% 0 mm 0 W/m2
18:30 10 °C 6 °C 1013.55 hPa WNW 30 km/h 30 km/h 78% 0 mm 0 W/m2
18:35 9 °C 6 °C 1013.55 hPa WNW 32 km/h 32 km/h 78% 0 mm 0 W/m2
18:40 9 °C 6 °C 1013.55 hPa WNW 22 km/h 22 km/h 79% 0 mm 0 W/m2
18:45 9 °C 6 °C 1013.88 hPa WNW 20 km/h 20 km/h 79% 0 mm 0 W/m2
18:50 9 °C 6 °C 1013.88 hPa W 33 km/h 33 km/h 79% 0 mm 0 W/m2
18:55 9 °C 6 °C 1013.88 hPa WNW 26 km/h 26 km/h 79% 0 mm 0 W/m2
19:00 9 °C 6 °C 1013.88 hPa NW 22 km/h 22 km/h 80% 0 mm 0 W/m2
19:05 9 °C 6 °C 1014.22 hPa WNW 20 km/h 20 km/h 80% 0 mm 0 W/m2
19:10 9 °C 6 °C 1014.22 hPa WNW 22 km/h 22 km/h 82% 0 mm 0 W/m2
19:15 9 °C 6 °C 1014.22 hPa WNW 19 km/h 19 km/h 82% 0 mm 0 W/m2
19:20 9 °C 6 °C 1014.22 hPa NW 28 km/h 28 km/h 82% 0 mm 0 W/m2
19:25 9 °C 6 °C 1014.56 hPa NW 35 km/h 35 km/h 80% 0 mm 0 W/m2
19:30 9 °C 6 °C 1014.56 hPa NW 28 km/h 28 km/h 80% 0 mm 0 W/m2
19:35 9 °C 6 °C 1014.9 hPa WNW 26 km/h 26 km/h 81% 0 mm 0 W/m2
19:40 9 °C 6 °C 1014.9 hPa WNW 24 km/h 24 km/h 82% 0 mm 0 W/m2
19:45 9 °C 6 °C 1014.9 hPa WNW 19 km/h 19 km/h 82% 0 mm 0 W/m2
19:50 9 °C 6 °C 1014.9 hPa WNW 19 km/h 19 km/h 82% 0 mm 0 W/m2
19:55 9 °C 6 °C 1015.24 hPa NNW 17 km/h 17 km/h 82% 0 mm 0 W/m2
20:00 9 °C 6 °C 1015.24 hPa WNW 20 km/h 20 km/h 83% 0 mm 0 W/m2
20:05 9 °C 6 °C 1015.24 hPa WNW 11 km/h 11 km/h 83% 0 mm 0 W/m2
20:10 9 °C 6 °C 1015.58 hPa NNW 19 km/h 19 km/h 83% 0 mm 0 W/m2
20:15 9 °C 6 °C 1015.58 hPa WNW 15 km/h 15 km/h 82% 0 mm 0 W/m2
20:20 9 °C 6 °C 1015.58 hPa NW 20 km/h 20 km/h 82% 0 mm 0 W/m2
20:25 9 °C 6 °C 1015.58 hPa WNW 24 km/h 24 km/h 81% 0 mm 0 W/m2
20:30 9 °C 6 °C 1015.58 hPa WNW 15 km/h 15 km/h 81% 0 mm 0 W/m2
20:35 9 °C 6 °C 1015.92 hPa NW 18 km/h 18 km/h 82% 0 mm 0 W/m2
20:40 9 °C 6 °C 1015.92 hPa NW 19 km/h 19 km/h 82% 0 mm 0 W/m2
20:45 9 °C 6 °C 1015.92 hPa WNW 17 km/h 17 km/h 82% 0 mm 0 W/m2
20:50 9 °C 6 °C 1015.92 hPa WNW 20 km/h 20 km/h 82% 0 mm 0 W/m2
20:55 9 °C 6 °C 1015.92 hPa WNW 24 km/h 24 km/h 82% 0 mm 0 W/m2
21:00 9 °C 6 °C 1015.92 hPa NW 32 km/h 32 km/h 82% 0 mm 0 W/m2
21:05 9 °C 6 °C 1015.92 hPa W 19 km/h 19 km/h 82% 0 mm 0 W/m2
21:10 9 °C 6 °C 1015.92 hPa WNW 24 km/h 24 km/h 82% 0 mm 0 W/m2
21:15 9 °C 6 °C 1015.92 hPa WNW 39 km/h 39 km/h 82% 0 mm 0 W/m2
21:20 9 °C 6 °C 1015.92 hPa WNW 21 km/h 21 km/h 81% 0 mm 0 W/m2
21:25 9 °C 6 °C 1015.92 hPa WNW 27 km/h 27 km/h 80% 0 mm 0 W/m2
21:30 9 °C 6 °C 1015.92 hPa NW 30 km/h 30 km/h 80% 0 mm 0 W/m2
21:35 9 °C 6 °C 1016.26 hPa WNW 32 km/h 32 km/h 80% 0 mm 0 W/m2
21:40 9 °C 6 °C 1016.26 hPa WNW 24 km/h 24 km/h 80% 0 mm 0 W/m2
21:45 9 °C 6 °C 1016.26 hPa NW 17 km/h 17 km/h 80% 0 mm 0 W/m2
21:50 9 °C 6 °C 1015.92 hPa W 19 km/h 19 km/h 80% 0 mm 0 W/m2
21:55 9 °C 6 °C 1016.59 hPa NW 23 km/h 23 km/h 80% 0 mm 0 W/m2
22:00 8 °C 6 °C 1016.59 hPa NW 26 km/h 26 km/h 80% 0 mm 0 W/m2
22:05 8 °C 6 °C 1016.93 hPa NW 22 km/h 22 km/h 80% 0 mm 0 W/m2
22:10 8 °C 6 °C 1016.93 hPa NW 22 km/h 22 km/h 80% 0 mm 0 W/m2
22:15 8 °C 6 °C 1017.27 hPa W 26 km/h 26 km/h 80% 0 mm 0 W/m2
22:20 8 °C 6 °C 1017.27 hPa NW 32 km/h 32 km/h 80% 0 mm 0 W/m2
22:25 9 °C 6 °C 1017.27 hPa WNW 28 km/h 28 km/h 80% 0 mm 0 W/m2
22:30 8 °C 6 °C 1017.27 hPa WNW 24 km/h 24 km/h 80% 0 mm 0 W/m2
22:35 8 °C 6 °C 1017.61 hPa NW 26 km/h 26 km/h 81% 0 mm 0 W/m2
22:40 8 °C 6 °C 1017.61 hPa WNW 24 km/h 24 km/h 81% 0 mm 0 W/m2
22:45 8 °C 6 °C 1017.61 hPa NW 32 km/h 32 km/h 81% 0 mm 0 W/m2
22:50 8 °C 5 °C 1017.61 hPa NW 32 km/h 32 km/h 80% 0 mm 0 W/m2
22:55 8 °C 5 °C 1017.61 hPa WNW 22 km/h 22 km/h 80% 0 mm 0 W/m2
23:01 8 °C 6 °C 1017.61 hPa NW 20 km/h 20 km/h 81% 0 mm 0 W/m2
23:06 8 °C 6 °C 1017.61 hPa NW 17 km/h 17 km/h 81% 0 mm 0 W/m2
23:11 8 °C 6 °C 1017.61 hPa NW 20 km/h 20 km/h 81% 0 mm 0 W/m2
23:16 8 °C 6 °C 1017.61 hPa WNW 19 km/h 19 km/h 81% 0 mm 0 W/m2
23:21 8 °C 6 °C 1017.61 hPa NW 27 km/h 27 km/h 81% 0 mm 0 W/m2
23:26 8 °C 6 °C 1017.61 hPa WNW 33 km/h 33 km/h 81% 0 mm 0 W/m2
23:31 8 °C 6 °C 1017.95 hPa WNW 19 km/h 19 km/h 81% 0 mm 0 W/m2
23:36 8 °C 6 °C 1017.95 hPa WNW 17 km/h 17 km/h 82% 0 mm 0 W/m2
23:40 8 °C 6 °C 1017.95 hPa WNW 15 km/h 15 km/h 82% 0 mm 0 W/m2
23:46 8 °C 6 °C 1017.61 hPa W 28 km/h 28 km/h 82% 0 mm 0 W/m2
23:50 8 °C 6 °C 1017.61 hPa NW 35 km/h 35 km/h 82% 0 mm 0 W/m2
23:56 8 °C 6 °C 1017.61 hPa WNW 33 km/h 33 km/h 82% 0 mm 0 W/m2
Compliments of Weather Underground - 4 mb